Time,TemperatureF,DewpointF,PressureIn,WindDirection,WindDirectionDegrees,WindSpeedMPH,WindSpeedGustMPH,Humidity,HourlyPrecipIn,Conditions,Clouds,dailyrainin,SoftwareType,DateUTC
2013-01-20 00:02:00,36.0,28.0,30.18,ENE,61,1.0,3.0,72,0.00,,,1.12,weatherlink.com 1.10,2013-01-20 05:02:00,
2013-01-20 00:17:00,36.4,28.0,30.18,ENE,61,0.0,2.0,72,0.00,,,1.12,weatherlink.com 1.10,2013-01-20 05:17:00,
2013-01-20 00:32:00,36.1,28.0,30.17,East,86,1.0,3.0,71,0.00,,,1.12,weatherlink.com 1.10,2013-01-20 05:32:00,
2013-01-20 00:47:00,35.7,28.0,30.17,East,86,0.0,0.0,73,0.00,,,1.12,weatherlink.com 1.10,2013-01-20 05:47:00,
2013-01-20 01:02:00,34.8,28.0,30.16,East,86,0.0,1.0,75,0.00,,,0.00,weatherlink.com 1.10,2013-01-20 06:02:00,
2013-01-20 01:17:00,35.8,28.0,30.16,East,86,0.0,1.0,73,0.00,,,0.00,weatherlink.com 1.10,2013-01-20 06:17:00,
2013-01-20 01:33:00,36.1,28.0,30.15,East,86,0.0,0.0,72,0.00,,,0.00,weatherlink.com 1.10,2013-01-20 06:33:00,
2013-01-20 01:48:00,33.6,27.0,30.15,East,86,0.0,2.0,78,0.00,,,0.00,weatherlink.com 1.10,2013-01-20 06:48:00,
2013-01-20 02:03:00,33.0,27.0,30.15,East,86,0.0,1.0,80,0.00,,,0.00,weatherlink.com 1.10,2013-01-20 07:03:00,
2013-01-20 02:18:00,32.5,28.0,30.15,East,86,0.0,2.0,82,0.00,,,0.00,weatherlink.com 1.10,2013-01-20 07:18:00,
2013-01-20 02:33:00,32.4,28.0,30.15,East,86,0.0,1.0,82,0.00,,,0.00,weatherlink.com 1.10,2013-01-20 07:33:00,
2013-01-20 02:48:00,32.1,27.0,30.15,East,86,0.0,0.0,82,0.00,,,0.00,weatherlink.com 1.10,2013-01-20 07:48:00,
2013-01-20 03:03:00,31.9,27.0,30.14,East,86,0.0,3.0,82,0.00,,,0.00,weatherlink.com 1.10,2013-01-20 08:03:00,
2013-01-20 03:18:00,31.7,27.0,30.14,East,86,0.0,0.0,83,0.00,,,0.00,weatherlink.com 1.10,2013-01-20 08:18:00,
2013-01-20 03:33:00,31.8,27.0,30.14,East,86,0.0,1.0,82,0.00,,,0.00,weatherlink.com 1.10,2013-01-20 08:33:00,
2013-01-20 03:48:00,31.7,27.0,30.14,East,86,0.0,0.0,83,0.00,,,0.00,weatherlink.com 1.10,2013-01-20 08:48:00,
2013-01-20 04:03:00,31.8,27.0,30.14,East,86,0.0,1.0,83,0.00,,,0.00,weatherlink.com 1.10,2013-01-20 09:03:00,
2013-01-20 04:18:00,31.8,27.0,30.13,East,86,0.0,1.0,83,0.00,,,0.00,weatherlink.com 1.10,2013-01-20 09:18:00,
2013-01-20 04:33:00,31.7,27.0,30.13,East,86,0.0,2.0,84,0.00,,,0.00,weatherlink.com 1.10,2013-01-20 09:33:00,
2013-01-20 04:48:00,31.8,28.0,30.13,East,86,1.0,2.0,84,0.00,,,0.00,weatherlink.com 1.10,2013-01-20 09:48:00,
2013-01-20 05:03:00,31.7,27.0,30.12,ENE,77,1.0,3.0,84,0.00,,,0.00,weatherlink.com 1.10,2013-01-20 10:03:00,
2013-01-20 05:18:00,32.0,27.0,30.12,ENE,70,0.0,3.0,83,0.00,,,0.00,weatherlink.com 1.10,2013-01-20 10:18:00,
2013-01-20 05:33:00,31.5,27.0,30.12,ENE,60,0.0,3.0,84,0.00,,,0.00,weatherlink.com 1.10,2013-01-20 10:33:00,
2013-01-20 05:48:00,31.5,27.0,30.12,NE,53,0.0,3.0,84,0.00,,,0.00,weatherlink.com 1.10,2013-01-20 10:48:00,
2013-01-20 06:03:00,31.4,27.0,30.12,NE,51,0.0,3.0,84,0.00,,,0.00,weatherlink.com 1.10,2013-01-20 11:03:00,
2013-01-20 06:18:00,31.5,27.0,30.12,NE,51,0.0,2.0,84,0.00,,,0.00,weatherlink.com 1.10,2013-01-20 11:18:00,
2013-01-20 06:33:00,31.6,27.0,30.12,NE,51,1.0,2.0,84,0.00,,,0.00,weatherlink.com 1.10,2013-01-20 11:33:00,
2013-01-20 06:48:00,30.9,27.0,30.12,NW,326,2.0,3.0,85,0.00,,,0.00,weatherlink.com 1.10,2013-01-20 11:48:00,
2013-01-20 07:03:00,32.5,27.0,30.12,SSW,192,0.0,3.0,81,0.00,,,0.00,weatherlink.com 1.10,2013-01-20 12:03:00,
2013-01-20 07:18:00,32.3,27.0,30.12,East,100,2.0,3.0,82,0.00,,,0.00,weatherlink.com 1.10,2013-01-20 12:18:00,
2013-01-20 07:33:00,31.7,27.0,30.13,East,87,3.0,5.0,83,0.00,,,0.00,weatherlink.com 1.10,2013-01-20 12:33:00,
2013-01-20 07:48:00,31.4,27.0,30.13,ENE,65,0.0,3.0,83,0.00,,,0.00,weatherlink.com 1.10,2013-01-20 12:48:00,
2013-01-20 08:03:00,32.3,28.0,30.14,ENE,60,0.0,3.0,83,0.00,,,0.00,weatherlink.com 1.10,2013-01-20 13:03:00,
2013-01-20 08:18:00,32.7,28.0,30.14,ESE,117,1.0,3.0,82,0.00,,,0.00,weatherlink.com 1.10,2013-01-20 13:18:00,
2013-01-20 08:33:00,33.9,29.0,30.14,NE,55,0.0,2.0,83,0.00,,,0.00,weatherlink.com 1.10,2013-01-20 13:33:00,
2013-01-20 08:48:00,34.9,30.0,30.14,NE,55,0.0,2.0,83,0.00,,,0.00,weatherlink.com 1.10,2013-01-20 13:48:00,
2013-01-20 09:03:00,37.1,32.0,30.14,ESE,117,0.0,2.0,81,0.00,,,0.00,weatherlink.com 1.10,2013-01-20 14:03:00,
2013-01-20 09:18:00,38.9,34.0,30.14,NW,311,0.0,3.0,82,0.00,,,0.00,weatherlink.com 1.10,2013-01-20 14:18:00,
2013-01-20 09:33:00,40.5,34.0,30.15,ESE,106,1.0,4.0,79,0.00,,,0.00,weatherlink.com 1.10,2013-01-20 14:33:00,
2013-01-20 09:48:00,42.8,32.0,30.15,SE,125,0.0,2.0,67,0.00,,,0.00,weatherlink.com 1.10,2013-01-20 14:48:00,
2013-01-20 10:03:00,45.5,33.0,30.15,East,100,0.0,3.0,62,0.00,,,0.00,weatherlink.com 1.10,2013-01-20 15:03:00,
2013-01-20 10:19:00,47.6,35.0,30.15,ESE,112,0.0,3.0,62,0.00,,,0.00,weatherlink.com 1.10,2013-01-20 15:19:00,
2013-01-20 10:34:00,49.8,34.0,30.15,SW,236,3.0,4.0,55,0.00,,,0.00,weatherlink.com 1.10,2013-01-20 15:34:00,
2013-01-20 10:49:00,51.4,35.0,30.15,West,261,1.0,5.0,54,0.00,,,0.00,weatherlink.com 1.10,2013-01-20 15:49:00,
2013-01-20 11:04:00,52.5,35.0,30.14,SW,234,1.0,4.0,52,0.00,,,0.00,weatherlink.com 1.10,2013-01-20 16:04:00,
2013-01-20 11:19:00,53.6,36.0,30.14,South,172,1.0,4.0,52,0.00,,,0.00,weatherlink.com 1.10,2013-01-20 16:19:00,
2013-01-20 11:34:00,55.3,36.0,30.12,South,171,3.0,8.0,48,0.00,,,0.00,weatherlink.com 1.10,2013-01-20 16:34:00,
2013-01-20 11:49:00,57.2,36.0,30.11,SW,231,4.0,12.0,46,0.00,,,0.00,weatherlink.com 1.10,2013-01-20 16:49:00,
2013-01-20 12:04:00,58.2,36.0,30.10,WSW,240,8.0,17.0,43,0.00,,,0.00,weatherlink.com 1.10,2013-01-20 17:04:00,
2013-01-20 12:19:00,58.8,36.0,30.09,West,276,8.0,13.0,42,0.00,,,0.00,weatherlink.com 1.10,2013-01-20 17:19:00,
2013-01-20 12:34:00,60.3,34.0,30.08,West,270,12.0,17.0,38,0.00,,,0.00,weatherlink.com 1.10,2013-01-20 17:34:00,
2013-01-20 12:49:00,61.0,34.0,30.07,West,278,12.0,16.0,37,0.00,,,0.00,weatherlink.com 1.10,2013-01-20 17:49:00,
2013-01-20 13:04:00,61.4,35.0,30.07,WNW,285,12.0,17.0,37,0.00,,,0.00,weatherlink.com 1.10,2013-01-20 18:04:00,
2013-01-20 13:19:00,61.8,31.0,30.06,NW,325,14.0,22.0,32,0.00,,,0.00,weatherlink.com 1.10,2013-01-20 18:19:00,
2013-01-20 13:34:00,62.5,32.0,30.05,WNW,290,12.0,17.0,32,0.00,,,0.00,weatherlink.com 1.10,2013-01-20 18:34:00,
2013-01-20 13:49:00,61.8,31.0,30.05,NW,310,12.0,21.0,31,0.00,,,0.00,weatherlink.com 1.10,2013-01-20 18:49:00,
2013-01-20 14:04:00,62.3,31.0,30.05,WNW,301,9.0,19.0,31,0.00,,,0.00,weatherlink.com 1.10,2013-01-20 19:04:00,
2013-01-20 14:19:00,62.6,31.0,30.05,NNW,331,7.0,19.0,30,0.00,,,0.00,weatherlink.com 1.10,2013-01-20 19:19:00,
2013-01-20 14:34:00,62.3,29.0,30.05,West,264,9.0,20.0,29,0.00,,,0.00,weatherlink.com 1.10,2013-01-20 19:34:00,
2013-01-20 14:49:00,62.3,29.0,30.05,West,268,11.0,23.0,28,0.00,,,0.00,weatherlink.com 1.10,2013-01-20 19:49:00,
2013-01-20 15:04:00,62.4,28.0,30.05,West,272,11.0,18.0,27,0.00,,,0.00,weatherlink.com 1.10,2013-01-20 20:04:00,
2013-01-20 15:19:00,62.6,27.0,30.05,WNW,285,7.0,18.0,26,0.00,,,0.00,weatherlink.com 1.10,2013-01-20 20:19:00,
2013-01-20 15:34:00,62.7,27.0,30.05,WNW,297,5.0,16.0,26,0.00,,,0.00,weatherlink.com 1.10,2013-01-20 20:34:00,
2013-01-20 15:49:00,63.1,28.0,30.05,NW,310,7.0,13.0,27,0.00,,,0.00,weatherlink.com 1.10,2013-01-20 20:49:00,
2013-01-20 16:04:00,62.9,28.0,30.05,WNW,293,4.0,10.0,27,0.00,,,0.00,weatherlink.com 1.10,2013-01-20 21:04:00,
2013-01-20 16:20:00,62.9,28.0,30.05,NW,309,3.0,11.0,27,0.00,,,0.00,weatherlink.com 1.10,2013-01-20 21:20:00,
2013-01-20 16:35:00,61.5,26.0,30.05,WNW,282,15.0,20.0,26,0.00,,,0.00,weatherlink.com 1.10,2013-01-20 21:35:00,
2013-01-20 16:50:00,61.0,27.0,30.05,WNW,291,6.0,16.0,27,0.00,,,0.00,weatherlink.com 1.10,2013-01-20 21:50:00,
2013-01-20 17:05:00,60.6,25.0,30.06,WNW,285,6.0,12.0,26,0.00,,,0.00,weatherlink.com 1.10,2013-01-20 22:05:00,
2013-01-20 17:20:00,59.6,24.0,30.07,NW,320,5.0,11.0,26,0.00,,,0.00,weatherlink.com 1.10,2013-01-20 22:20:00,
2013-01-20 17:35:00,57.9,25.0,30.07,NW,304,9.0,12.0,28,0.00,,,0.00,weatherlink.com 1.10,2013-01-20 22:35:00,
2013-01-20 17:50:00,56.7,25.0,30.07,WNW,290,5.0,10.0,30,0.00,,,0.00,weatherlink.com 1.10,2013-01-20 22:50:00,
2013-01-20 18:05:00,56.0,26.0,30.07,North,4,7.0,13.0,32,0.00,,,0.00,weatherlink.com 1.10,2013-01-20 23:05:00,
2013-01-20 18:20:00,55.7,26.0,30.08,NW,322,3.0,13.0,32,0.00,,,0.00,weatherlink.com 1.10,2013-01-20 23:20:00,
2013-01-20 18:35:00,55.0,26.0,30.09,NW,316,2.0,9.0,33,0.00,,,0.00,weatherlink.com 1.10,2013-01-20 23:35:00,
2013-01-20 18:50:00,54.1,26.0,30.08,NNW,334,3.0,10.0,34,0.00,,,0.00,weatherlink.com 1.10,2013-01-20 23:50:00,
2013-01-20 19:05:00,53.6,26.0,30.08,NW,320,6.0,11.0,35,0.00,,,0.00,weatherlink.com 1.10,2013-01-21 00:05:00,
2013-01-20 19:20:00,53.2,25.0,30.08,NW,312,4.0,13.0,34,0.00,,,0.00,weatherlink.com 1.10,2013-01-21 00:20:00,
2013-01-20 19:35:00,52.7,26.0,30.09,NW,308,4.0,11.0,35,0.00,,,0.00,weatherlink.com 1.10,2013-01-21 00:35:00,
2013-01-20 19:50:00,51.8,25.0,30.09,WNW,295,2.0,8.0,36,0.00,,,0.00,weatherlink.com 1.10,2013-01-21 00:50:00,
2013-01-20 20:05:00,51.9,24.0,30.09,NNW,343,3.0,6.0,34,0.00,,,0.00,weatherlink.com 1.10,2013-01-21 01:05:00,
2013-01-20 20:20:00,51.7,25.0,30.09,NW,314,0.0,7.0,35,0.00,,,0.00,weatherlink.com 1.10,2013-01-21 01:20:00,
2013-01-20 20:35:00,50.7,26.0,30.10,ENE,62,1.0,6.0,38,0.00,,,0.00,weatherlink.com 1.10,2013-01-21 01:35:00,
2013-01-20 20:50:00,48.6,26.0,30.09,ESE,104,0.0,2.0,41,0.00,,,0.00,weatherlink.com 1.10,2013-01-21 01:50:00,
2013-01-20 21:05:00,47.3,26.0,30.10,East,97,2.0,3.0,44,0.00,,,0.00,weatherlink.com 1.10,2013-01-21 02:05:00,
2013-01-20 21:20:00,46.9,26.0,30.10,East,94,0.0,3.0,44,0.00,,,0.00,weatherlink.com 1.10,2013-01-21 02:20:00,
2013-01-20 21:35:00,46.6,26.0,30.10,East,94,1.0,1.0,44,0.00,,,0.00,weatherlink.com 1.10,2013-01-21 02:35:00,
2013-01-20 21:50:00,45.9,27.0,30.10,East,94,0.0,2.0,47,0.00,,,0.00,weatherlink.com 1.10,2013-01-21 02:50:00,
2013-01-20 22:05:00,45.6,26.0,30.11,East,93,0.0,1.0,47,0.00,,,0.00,weatherlink.com 1.10,2013-01-21 03:05:00,
2013-01-20 22:20:00,45.4,27.0,30.10,East,94,0.0,1.0,49,0.00,,,0.00,weatherlink.com 1.10,2013-01-21 03:20:00,
2013-01-20 22:35:00,43.9,27.0,30.10,East,93,1.0,2.0,52,0.00,,,0.00,weatherlink.com 1.10,2013-01-21 03:35:00,
2013-01-20 22:50:00,41.8,27.0,30.10,NNW,333,0.0,3.0,56,0.00,,,0.00,weatherlink.com 1.10,2013-01-21 03:50:00,
2013-01-20 23:05:00,41.6,27.0,30.10,NNW,333,0.0,1.0,56,0.00,,,0.00,weatherlink.com 1.10,2013-01-21 04:05:00,
2013-01-20 23:20:00,41.6,28.0,30.10,ENE,73,1.0,3.0,58,0.00,,,0.00,weatherlink.com 1.10,2013-01-21 04:20:00,
2013-01-20 23:35:00,40.1,27.0,30.09,ENE,72,2.0,3.0,59,0.00,,,0.00,weatherlink.com 1.10,2013-01-21 04:35:00,
2013-01-20 23:50:00,40.7,27.0,30.09,NNE,18,2.0,3.0,59,0.00,,,0.00,weatherlink.com 1.10,2013-01-21 04:50:00,